CDT,Max TemperatureF,Mean TemperatureF,Min TemperatureF,Max Dew PointF,MeanDew PointF,Min DewpointF,Max Humidity, Mean Humidity, Min Humidity, Max Sea Level PressureIn, Mean Sea Level PressureIn, Min Sea Level PressureIn, Max VisibilityMiles, Mean VisibilityMiles, Min VisibilityMiles, Max Wind SpeedMPH, Mean Wind SpeedMPH, Max Gust SpeedMPH,PrecipitationIn, CloudCover, Events, WindDirDegrees
2014-4-1,42,32,21,19,16,14,73,52,35,30.12,30.05,29.96,10,10,10,25,13,38,0.00,3,,341
2014-4-2,43,36,29,38,29,18,92,70,45,30.07,29.93,29.79,10,8,2,21,10,25,0.00,6,,51
2014-4-3,39,36,32,38,36,31,94,91,89,29.82,29.74,29.70,7,3,1,25,13,31,0.03,8,Rain-Snow,359
2014-4-4,44,37,29,32,29,25,94,75,51,30.14,30.02,29.83,10,9,2,29,18,37,0.00,6,Snow,319
2014-4-5,63,42,23,32,25,19,92,57,20,30.13,30.04,29.93,10,10,7,24,9,29,0.00,0,,158
2014-4-6,64,53,43,37,33,28,72,49,32,29.95,29.89,29.82,10,10,7,18,11,25,0.00,6,,179
2014-4-7,65,53,41,41,32,20,85,52,19,29.96,29.84,29.78,10,10,10,23,9,31,0.00,5,Rain,331
2014-4-8,59,46,35,33,25,12,81,49,16,30.12,30.04,29.96,10,10,10,22,12,28,0.00,1,,327
2014-4-9,82,56,31,31,21,15,60,30,9,30.05,29.84,29.60,10,10,7,24,10,31,0.00,0,,200
2014-4-10,67,57,44,36,23,7,59,31,10,30.00,29.87,29.57,10,10,7,29,11,39,0.03,0,,349
2014-4-11,77,58,38,31,22,15,50,26,11,30.05,29.95,29.80,10,10,10,17,6,23,0.00,1,,199
2014-4-12,81,66,52,55,47,31,80,49,31,29.79,29.61,29.50,10,10,7,20,12,25,0.00,1,,210
2014-4-13,61,46,32,50,37,24,90,79,65,29.97,29.72,29.59,10,7,0,41,23,52,0.41,7,Rain-Snow,360
2014-4-14,41,34,28,25,21,18,81,63,45,30.22,30.13,29.97,10,10,10,33,22,44,0.00,4,,339
2014-4-15,55,38,21,31,23,17,83,57,29,30.19,30.05,29.80,10,10,10,22,9,29,0.00,1,,154
2014-4-16,67,50,34,33,26,23,72,46,20,30.12,29.80,29.68,10,10,10,32,19,41,0.00,3,,209
2014-4-17,55,43,31,26,23,18,75,53,24,30.34,30.25,30.14,10,10,10,22,12,31,0.00,3,,9
2014-4-18,70,50,29,39,31,24,84,50,25,30.26,30.17,30.05,10,9,3,26,9,33,0.00,0,,156
2014-4-19,79,65,51,46,42,38,66,45,26,30.06,30.00,29.95,10,10,10,25,15,30,0.00,3,,172
2014-4-20,84,70,56,57,48,43,84,54,24,29.99,29.96,29.91,10,10,5,21,10,33,0.05,2,Rain,188
2014-4-21,75,64,51,55,36,12,88,46,9,30.15,30.02,29.92,10,10,10,33,14,39,0.02,2,Rain,335
2014-4-22,70,53,37,33,29,25,82,42,20,30.17,30.08,29.94,10,10,10,17,8,23,0.00,2,,97
2014-4-23,61,55,49,47,41,33,82,62,47,29.95,29.78,29.60,10,10,10,37,16,44,0.05,5,Rain,124
2014-4-24,65,56,47,49,43,34,91,67,32,29.81,29.71,29.60,10,9,4,23,11,31,0.24,4,Rain,339
2014-4-25,80,58,37,40,34,25,84,46,13,29.85,29.79,29.73,10,10,7,24,6,31,0.00,0,,231
2014-4-26,81,63,45,55,44,38,81,51,27,29.76,29.62,29.48,10,10,10,34,12,43,0.00,0,,127
2014-4-27,69,64,59,58,55,50,89,73,58,29.47,29.34,29.24,10,10,5,30,20,37,0.45,4,Rain,123
2014-4-28,62,55,48,56,46,41,87,70,50,29.38,29.27,29.22,10,10,5,22,13,28,0.09,5,Rain,178
2014-4-29,50,44,39,47,39,34,90,83,75,29.90,29.62,29.38,10,9,4,28,17,38,0.17,8,Rain,343
2014-4-30,47,44,40,38,35,32,85,73,59,29.97,29.93,29.89,10,10,7,28,16,36,0.00,7,Rain,316